sensor_id;sensor_type;location;lat;lon;timestamp;P1;durP1;ratioP1;P2;durP2;ratioP2
7412;SDS011;3748;48.136;11.538;2022-12-22T00:01:33;6.27;;;5.70;;
7412;SDS011;3748;48.136;11.538;2022-12-22T00:04:19;7.80;;;5.90;;
7412;SDS011;3748;48.136;11.538;2022-12-22T00:07:05;4.97;;;4.47;;
7412;SDS011;3748;48.136;11.538;2022-12-22T00:09:49;6.17;;;5.10;;
7412;SDS011;3748;48.136;11.538;2022-12-22T00:12:33;5.33;;;4.83;;
7412;SDS011;3748;48.136;11.538;2022-12-22T00:15:18;7.50;;;4.93;;
7412;SDS011;3748;48.136;11.538;2022-12-22T00:18:03;5.13;;;4.63;;
7412;SDS011;3748;48.136;11.538;2022-12-22T00:20:47;5.40;;;5.00;;
7412;SDS011;3748;48.136;11.538;2022-12-22T00:23:33;5.30;;;4.80;;
7412;SDS011;3748;48.136;11.538;2022-12-22T00:26:18;6.87;;;4.70;;
7412;SDS011;3748;48.136;11.538;2022-12-22T00:29:02;7.33;;;4.80;;
7412;SDS011;3748;48.136;11.538;2022-12-22T00:31:47;6.70;;;5.23;;
7412;SDS011;3748;48.136;11.538;2022-12-22T00:34:32;7.03;;;5.00;;
7412;SDS011;3748;48.136;11.538;2022-12-22T00:37:22;5.13;;;4.27;;
7412;SDS011;3748;48.136;11.538;2022-12-22T00:40:17;4.90;;;4.50;;
7412;SDS011;3748;48.136;11.538;2022-12-22T00:43:03;8.20;;;5.37;;
7412;SDS011;3748;48.136;11.538;2022-12-22T00:45:47;5.27;;;4.83;;
7412;SDS011;3748;48.136;11.538;2022-12-22T00:48:33;5.50;;;4.47;;
7412;SDS011;3748;48.136;11.538;2022-12-22T00:51:17;6.97;;;5.10;;
7412;SDS011;3748;48.136;11.538;2022-12-22T00:54:01;5.27;;;4.67;;
7412;SDS011;3748;48.136;11.538;2022-12-22T00:56:47;4.40;;;4.00;;
7412;SDS011;3748;48.136;11.538;2022-12-22T00:59:31;4.63;;;3.93;;
7412;SDS011;3748;48.136;11.538;2022-12-22T01:02:15;4.57;;;4.17;;
7412;SDS011;3748;48.136;11.538;2022-12-22T01:04:59;4.13;;;3.60;;
7412;SDS011;3748;48.136;11.538;2022-12-22T01:07:44;8.03;;;4.83;;
7412;SDS011;3748;48.136;11.538;2022-12-22T01:10:28;6.73;;;6.13;;
7412;SDS011;3748;48.136;11.538;2022-12-22T01:13:14;4.80;;;4.37;;
7412;SDS011;3748;48.136;11.538;2022-12-22T01:15:59;9.93;;;4.33;;
7412;SDS011;3748;48.136;11.538;2022-12-22T01:18:44;4.63;;;4.13;;
7412;SDS011;3748;48.136;11.538;2022-12-22T01:21:28;5.00;;;4.50;;
7412;SDS011;3748;48.136;11.538;2022-12-22T01:24:13;4.33;;;3.80;;
7412;SDS011;3748;48.136;11.538;2022-12-22T01:26:59;5.10;;;4.17;;
7412;SDS011;3748;48.136;11.538;2022-12-22T01:29:45;6.10;;;4.10;;
7412;SDS011;3748;48.136;11.538;2022-12-22T01:32:29;4.70;;;4.30;;
7412;SDS011;3748;48.136;11.538;2022-12-22T01:35:18;5.50;;;3.60;;
7412;SDS011;3748;48.136;11.538;2022-12-22T01:38:03;5.57;;;3.70;;
7412;SDS011;3748;48.136;11.538;2022-12-22T01:40:48;5.30;;;4.20;;
7412;SDS011;3748;48.136;11.538;2022-12-22T01:43:33;4.43;;;4.03;;
7412;SDS011;3748;48.136;11.538;2022-12-22T01:46:20;6.13;;;3.40;;
7412;SDS011;3748;48.136;11.538;2022-12-22T01:49:07;4.83;;;3.80;;
7412;SDS011;3748;48.136;11.538;2022-12-22T01:51:53;3.83;;;3.47;;
7412;SDS011;3748;48.136;11.538;2022-12-22T01:54:38;4.00;;;3.70;;
7412;SDS011;3748;48.136;11.538;2022-12-22T01:57:22;3.77;;;3.47;;
7412;SDS011;3748;48.136;11.538;2022-12-22T02:00:07;3.40;;;3.20;;
7412;SDS011;3748;48.136;11.538;2022-12-22T02:02:54;4.70;;;4.20;;
7412;SDS011;3748;48.136;11.538;2022-12-22T02:05:39;4.07;;;3.60;;
7412;SDS011;3748;48.136;11.538;2022-12-22T02:08:34;5.07;;;4.03;;
7412;SDS011;3748;48.136;11.538;2022-12-22T02:11:26;6.17;;;4.23;;
7412;SDS011;3748;48.136;11.538;2022-12-22T02:14:24;4.47;;;3.90;;
7412;SDS011;3748;48.136;11.538;2022-12-22T02:17:16;3.50;;;3.20;;
7412;SDS011;3748;48.136;11.538;2022-12-22T02:20:13;3.03;;;2.47;;
7412;SDS011;3748;48.136;11.538;2022-12-22T02:23:20;3.83;;;2.83;;
7412;SDS011;3748;48.136;11.538;2022-12-22T02:26:24;3.30;;;2.47;;
7412;SDS011;3748;48.136;11.538;2022-12-22T02:29:12;2.23;;;1.97;;
7412;SDS011;3748;48.136;11.538;2022-12-22T02:31:57;5.17;;;2.33;;
7412;SDS011;3748;48.136;11.538;2022-12-22T02:34:42;2.67;;;2.47;;
7412;SDS011;3748;48.136;11.538;2022-12-22T02:37:28;2.70;;;2.20;;
7412;SDS011;3748;48.136;11.538;2022-12-22T02:40:33;2.53;;;2.33;;
7412;SDS011;3748;48.136;11.538;2022-12-22T02:43:32;2.43;;;2.23;;
7412;SDS011;3748;48.136;11.538;2022-12-22T02:46:26;2.60;;;2.10;;
7412;SDS011;3748;48.136;11.538;2022-12-22T02:49:16;2.80;;;2.37;;
7412;SDS011;3748;48.136;11.538;2022-12-22T02:52:04;2.13;;;2.03;;
7412;SDS011;3748;48.136;11.538;2022-12-22T02:54:54;2.53;;;2.33;;
7412;SDS011;3748;48.136;11.538;2022-12-22T02:57:39;2.37;;;2.17;;
7412;SDS011;3748;48.136;11.538;2022-12-22T03:00:25;3.40;;;2.80;;
7412;SDS011;3748;48.136;11.538;2022-12-22T03:03:08;2.50;;;2.13;;
7412;SDS011;3748;48.136;11.538;2022-12-22T03:05:53;2.80;;;2.20;;
7412;SDS011;3748;48.136;11.538;2022-12-22T03:08:37;2.33;;;1.60;;
7412;SDS011;3748;48.136;11.538;2022-12-22T03:11:21;1.60;;;1.50;;
7412;SDS011;3748;48.136;11.538;2022-12-22T03:14:05;1.93;;;1.40;;
7412;SDS011;3748;48.136;11.538;2022-12-22T03:16:50;1.53;;;1.43;;
7412;SDS011;3748;48.136;11.538;2022-12-22T03:19:35;5.27;;;2.17;;
7412;SDS011;3748;48.136;11.538;2022-12-22T03:22:19;2.03;;;1.40;;
7412;SDS011;3748;48.136;11.538;2022-12-22T03:25:03;1.60;;;1.50;;
7412;SDS011;3748;48.136;11.538;2022-12-22T03:27:48;1.43;;;1.27;;
7412;SDS011;3748;48.136;11.538;2022-12-22T03:30:15;2.17;;;1.30;;
7412;SDS011;3748;48.136;11.538;2022-12-22T03:32:43;2.07;;;1.87;;
7412;SDS011;3748;48.136;11.538;2022-12-22T03:35:10;2.70;;;1.77;;
7412;SDS011;3748;48.136;11.538;2022-12-22T03:37:36;1.77;;;1.23;;
7412;SDS011;3748;48.136;11.538;2022-12-22T03:40:03;1.77;;;1.37;;
7412;SDS011;3748;48.136;11.538;2022-12-22T03:42:31;1.20;;;1.10;;
7412;SDS011;3748;48.136;11.538;2022-12-22T03:45:15;1.70;;;1.20;;
7412;SDS011;3748;48.136;11.538;2022-12-22T03:48:01;2.33;;;1.40;;
7412;SDS011;3748;48.136;11.538;2022-12-22T03:50:28;1.70;;;1.40;;
7412;SDS011;3748;48.136;11.538;2022-12-22T03:52:55;1.70;;;1.30;;
7412;SDS011;3748;48.136;11.538;2022-12-22T03:55:22;1.63;;;1.53;;
7412;SDS011;3748;48.136;11.538;2022-12-22T03:57:48;1.87;;;1.30;;
7412;SDS011;3748;48.136;11.538;2022-12-22T04:00:16;1.33;;;1.17;;
7412;SDS011;3748;48.136;11.538;2022-12-22T04:02:43;1.80;;;1.40;;
7412;SDS011;3748;48.136;11.538;2022-12-22T04:05:11;1.70;;;1.43;;
7412;SDS011;3748;48.136;11.538;2022-12-22T04:07:37;2.60;;;1.40;;
7412;SDS011;3748;48.136;11.538;2022-12-22T04:10:05;2.43;;;1.50;;
7412;SDS011;3748;48.136;11.538;2022-12-22T04:12:50;1.30;;;1.20;;
7412;SDS011;3748;48.136;11.538;2022-12-22T04:15:20;1.77;;;1.67;;
7412;SDS011;3748;48.136;11.538;2022-12-22T04:17:48;1.97;;;1.70;;
7412;SDS011;3748;48.136;11.538;2022-12-22T04:20:16;10.27;;;1.93;;
7412;SDS011;3748;48.136;11.538;2022-12-22T04:22:44;2.20;;;1.57;;
7412;SDS011;3748;48.136;11.538;2022-12-22T04:25:11;1.70;;;1.57;;
7412;SDS011;3748;48.136;11.538;2022-12-22T04:27:38;2.10;;;1.30;;
7412;SDS011;3748;48.136;11.538;2022-12-22T04:30:05;2.03;;;1.50;;
7412;SDS011;3748;48.136;11.538;2022-12-22T04:32:33;1.30;;;1.20;;
7412;SDS011;3748;48.136;11.538;2022-12-22T04:35:00;2.53;;;1.50;;
7412;SDS011;3748;48.136;11.538;2022-12-22T04:37:28;2.00;;;1.40;;
7412;SDS011;3748;48.136;11.538;2022-12-22T04:39:55;1.60;;;1.27;;
7412;SDS011;3748;48.136;11.538;2022-12-22T04:42:22;1.43;;;1.27;;
7412;SDS011;3748;48.136;11.538;2022-12-22T04:44:48;3.27;;;1.60;;
7412;SDS011;3748;48.136;11.538;2022-12-22T04:47:16;1.77;;;1.13;;
7412;SDS011;3748;48.136;11.538;2022-12-22T04:49:42;1.50;;;1.20;;
7412;SDS011;3748;48.136;11.538;2022-12-22T04:52:09;1.63;;;1.30;;
7412;SDS011;3748;48.136;11.538;2022-12-22T04:54:37;1.67;;;1.13;;
7412;SDS011;3748;48.136;11.538;2022-12-22T04:57:04;2.07;;;1.50;;
7412;SDS011;3748;48.136;11.538;2022-12-22T04:59:31;1.30;;;1.07;;
7412;SDS011;3748;48.136;11.538;2022-12-22T05:01:57;2.50;;;1.60;;
7412;SDS011;3748;48.136;11.538;2022-12-22T05:04:24;1.93;;;1.60;;
7412;SDS011;3748;48.136;11.538;2022-12-22T05:06:51;1.43;;;1.20;;
7412;SDS011;3748;48.136;11.538;2022-12-22T05:09:18;1.57;;;1.10;;
7412;SDS011;3748;48.136;11.538;2022-12-22T05:11:46;1.10;;;1.00;;
7412;SDS011;3748;48.136;11.538;2022-12-22T05:14:13;1.30;;;1.17;;
7412;SDS011;3748;48.136;11.538;2022-12-22T05:16:39;1.80;;;1.30;;
7412;SDS011;3748;48.136;11.538;2022-12-22T05:19:06;1.30;;;1.10;;
7412;SDS011;3748;48.136;11.538;2022-12-22T05:21:33;2.40;;;1.30;;
7412;SDS011;3748;48.136;11.538;2022-12-22T05:24:00;1.30;;;1.20;;
7412;SDS011;3748;48.136;11.538;2022-12-22T05:26:26;3.10;;;1.60;;
7412;SDS011;3748;48.136;11.538;2022-12-22T05:28:54;1.80;;;1.20;;
7412;SDS011;3748;48.136;11.538;2022-12-22T05:31:22;1.80;;;1.10;;
7412;SDS011;3748;48.136;11.538;2022-12-22T05:33:50;1.20;;;1.10;;
7412;SDS011;3748;48.136;11.538;2022-12-22T05:36:17;2.37;;;2.00;;
7412;SDS011;3748;48.136;11.538;2022-12-22T05:38:44;2.80;;;1.87;;
7412;SDS011;3748;48.136;11.538;2022-12-22T05:41:11;5.10;;;2.00;;
7412;SDS011;3748;48.136;11.538;2022-12-22T05:43:38;2.03;;;1.83;;
7412;SDS011;3748;48.136;11.538;2022-12-22T05:46:07;20.23;;;16.60;;
7412;SDS011;3748;48.136;11.538;2022-12-22T05:48:36;2.27;;;2.00;;
7412;SDS011;3748;48.136;11.538;2022-12-22T05:51:03;3.60;;;1.80;;
7412;SDS011;3748;48.136;11.538;2022-12-22T05:53:30;3.30;;;2.47;;
7412;SDS011;3748;48.136;11.538;2022-12-22T05:55:57;2.13;;;1.83;;
7412;SDS011;3748;48.136;11.538;2022-12-22T05:58:23;2.53;;;1.90;;
7412;SDS011;3748;48.136;11.538;2022-12-22T06:00:50;2.30;;;2.10;;
7412;SDS011;3748;48.136;11.538;2022-12-22T06:03:18;3.20;;;1.57;;
7412;SDS011;3748;48.136;11.538;2022-12-22T06:05:48;2.87;;;1.60;;
7412;SDS011;3748;48.136;11.538;2022-12-22T06:08:14;2.53;;;2.30;;
7412;SDS011;3748;48.136;11.538;2022-12-22T06:10:41;2.40;;;2.20;;
7412;SDS011;3748;48.136;11.538;2022-12-22T06:13:08;2.70;;;1.70;;
7412;SDS011;3748;48.136;11.538;2022-12-22T06:15:34;1.90;;;1.70;;
7412;SDS011;3748;48.136;11.538;2022-12-22T06:18:01;1.83;;;1.37;;
7412;SDS011;3748;48.136;11.538;2022-12-22T06:20:29;3.13;;;1.60;;
7412;SDS011;3748;48.136;11.538;2022-12-22T06:22:56;1.40;;;1.10;;
7412;SDS011;3748;48.136;11.538;2022-12-22T06:25:23;1.00;;;0.90;;
7412;SDS011;3748;48.136;11.538;2022-12-22T06:27:49;1.70;;;1.00;;
7412;SDS011;3748;48.136;11.538;2022-12-22T06:30:16;2.63;;;1.13;;
7412;SDS011;3748;48.136;11.538;2022-12-22T06:32:43;2.33;;;1.20;;
7412;SDS011;3748;48.136;11.538;2022-12-22T06:35:10;1.87;;;1.53;;
7412;SDS011;3748;48.136;11.538;2022-12-22T06:37:38;3.73;;;1.17;;
7412;SDS011;3748;48.136;11.538;2022-12-22T06:40:05;1.60;;;1.00;;
7412;SDS011;3748;48.136;11.538;2022-12-22T06:42:33;1.77;;;1.20;;
7412;SDS011;3748;48.136;11.538;2022-12-22T06:45:18;1.57;;;1.20;;
7412;SDS011;3748;48.136;11.538;2022-12-22T06:47:45;1.10;;;1.00;;
7412;SDS011;3748;48.136;11.538;2022-12-22T06:50:11;2.23;;;1.00;;
7412;SDS011;3748;48.136;11.538;2022-12-22T06:52:40;5.60;;;1.00;;
7412;SDS011;3748;48.136;11.538;2022-12-22T06:55:07;1.93;;;1.00;;
7412;SDS011;3748;48.136;11.538;2022-12-22T06:57:34;2.90;;;1.00;;
7412;SDS011;3748;48.136;11.538;2022-12-22T07:00:00;1.40;;;0.90;;
7412;SDS011;3748;48.136;11.538;2022-12-22T07:02:28;2.30;;;1.13;;
7412;SDS011;3748;48.136;11.538;2022-12-22T07:04:55;1.83;;;1.10;;
7412;SDS011;3748;48.136;11.538;2022-12-22T07:07:22;1.13;;;0.97;;
7412;SDS011;3748;48.136;11.538;2022-12-22T07:09:50;5.37;;;0.97;;
7412;SDS011;3748;48.136;11.538;2022-12-22T07:12:18;1.10;;;1.00;;
7412;SDS011;3748;48.136;11.538;2022-12-22T07:14:45;6.47;;;1.43;;
7412;SDS011;3748;48.136;11.538;2022-12-22T07:17:11;1.43;;;0.90;;
7412;SDS011;3748;48.136;11.538;2022-12-22T07:19:38;1.60;;;1.27;;
7412;SDS011;3748;48.136;11.538;2022-12-22T07:22:05;3.20;;;0.97;;
7412;SDS011;3748;48.136;11.538;2022-12-22T07:24:32;1.43;;;0.90;;
7412;SDS011;3748;48.136;11.538;2022-12-22T07:27:00;3.00;;;1.20;;
7412;SDS011;3748;48.136;11.538;2022-12-22T07:29:27;1.83;;;1.20;;
7412;SDS011;3748;48.136;11.538;2022-12-22T07:31:53;1.80;;;1.00;;
7412;SDS011;3748;48.136;11.538;2022-12-22T07:34:20;1.47;;;1.37;;
7412;SDS011;3748;48.136;11.538;2022-12-22T07:36:47;1.20;;;1.00;;
7412;SDS011;3748;48.136;11.538;2022-12-22T07:39:14;3.53;;;1.23;;
7412;SDS011;3748;48.136;11.538;2022-12-22T07:41:41;1.10;;;0.83;;
7412;SDS011;3748;48.136;11.538;2022-12-22T07:44:26;2.33;;;1.10;;
7412;SDS011;3748;48.136;11.538;2022-12-22T07:46:53;8.83;;;1.43;;
7412;SDS011;3748;48.136;11.538;2022-12-22T07:49:20;1.20;;;1.10;;
7412;SDS011;3748;48.136;11.538;2022-12-22T07:52:04;1.67;;;1.53;;
7412;SDS011;3748;48.136;11.538;2022-12-22T07:54:33;3.03;;;1.30;;
7412;SDS011;3748;48.136;11.538;2022-12-22T07:57:00;1.57;;;1.40;;
7412;SDS011;3748;48.136;11.538;2022-12-22T07:59:28;3.50;;;1.50;;
7412;SDS011;3748;48.136;11.538;2022-12-22T08:01:55;2.83;;;1.23;;
7412;SDS011;3748;48.136;11.538;2022-12-22T08:04:22;4.40;;;1.33;;
7412;SDS011;3748;48.136;11.538;2022-12-22T08:06:48;2.60;;;1.00;;
7412;SDS011;3748;48.136;11.538;2022-12-22T08:09:16;1.67;;;1.30;;
7412;SDS011;3748;48.136;11.538;2022-12-22T08:11:45;1.80;;;1.20;;
7412;SDS011;3748;48.136;11.538;2022-12-22T08:14:13;2.30;;;0.90;;
7412;SDS011;3748;48.136;11.538;2022-12-22T08:16:41;2.50;;;1.30;;
7412;SDS011;3748;48.136;11.538;2022-12-22T08:19:07;1.40;;;1.03;;
7412;SDS011;3748;48.136;11.538;2022-12-22T08:21:34;1.60;;;1.03;;
7412;SDS011;3748;48.136;11.538;2022-12-22T08:24:01;1.17;;;1.03;;
7412;SDS011;3748;48.136;11.538;2022-12-22T08:26:31;3.83;;;1.10;;
7412;SDS011;3748;48.136;11.538;2022-12-22T08:29:02;1.93;;;1.00;;
7412;SDS011;3748;48.136;11.538;2022-12-22T08:31:33;2.80;;;1.17;;
7412;SDS011;3748;48.136;11.538;2022-12-22T08:34:02;1.73;;;1.30;;
7412;SDS011;3748;48.136;11.538;2022-12-22T08:36:31;3.87;;;1.83;;
7412;SDS011;3748;48.136;11.538;2022-12-22T08:39:02;1.47;;;1.10;;
7412;SDS011;3748;48.136;11.538;2022-12-22T08:41:30;5.57;;;1.57;;
7412;SDS011;3748;48.136;11.538;2022-12-22T08:44:15;1.47;;;0.90;;
7412;SDS011;3748;48.136;11.538;2022-12-22T08:46:43;4.10;;;1.13;;
7412;SDS011;3748;48.136;11.538;2022-12-22T08:49:12;2.80;;;1.10;;
7412;SDS011;3748;48.136;11.538;2022-12-22T08:51:38;2.37;;;1.10;;
7412;SDS011;3748;48.136;11.538;2022-12-22T08:54:05;5.10;;;1.50;;
7412;SDS011;3748;48.136;11.538;2022-12-22T08:56:32;2.60;;;1.17;;
7412;SDS011;3748;48.136;11.538;2022-12-22T08:58:59;1.17;;;1.03;;
7412;SDS011;3748;48.136;11.538;2022-12-22T09:01:29;2.30;;;1.10;;
7412;SDS011;3748;48.136;11.538;2022-12-22T09:03:57;1.37;;;1.23;;
7412;SDS011;3748;48.136;11.538;2022-12-22T09:06:26;3.10;;;1.10;;
7412;SDS011;3748;48.136;11.538;2022-12-22T09:08:53;3.33;;;1.77;;
7412;SDS011;3748;48.136;11.538;2022-12-22T09:11:21;2.70;;;1.30;;
7412;SDS011;3748;48.136;11.538;2022-12-22T09:13:49;4.13;;;1.47;;
7412;SDS011;3748;48.136;11.538;2022-12-22T09:16:16;2.37;;;1.30;;
7412;SDS011;3748;48.136;11.538;2022-12-22T09:18:43;3.37;;;1.40;;
7412;SDS011;3748;48.136;11.538;2022-12-22T09:21:10;4.10;;;1.07;;
7412;SDS011;3748;48.136;11.538;2022-12-22T09:23:38;1.60;;;1.37;;
7412;SDS011;3748;48.136;11.538;2022-12-22T09:26:05;3.30;;;1.40;;
7412;SDS011;3748;48.136;11.538;2022-12-22T09:28:33;4.73;;;1.60;;
7412;SDS011;3748;48.136;11.538;2022-12-22T09:31:00;1.50;;;1.23;;
7412;SDS011;3748;48.136;11.538;2022-12-22T09:33:27;1.80;;;1.20;;
7412;SDS011;3748;48.136;11.538;2022-12-22T09:35:53;1.43;;;1.33;;
7412;SDS011;3748;48.136;11.538;2022-12-22T09:38:20;3.93;;;1.20;;
7412;SDS011;3748;48.136;11.538;2022-12-22T09:40:48;2.37;;;1.13;;
7412;SDS011;3748;48.136;11.538;2022-12-22T09:43:16;1.53;;;1.10;;
7412;SDS011;3748;48.136;11.538;2022-12-22T09:45:44;1.17;;;1.00;;
7412;SDS011;3748;48.136;11.538;2022-12-22T09:48:11;2.27;;;0.93;;
7412;SDS011;3748;48.136;11.538;2022-12-22T09:50:39;4.47;;;1.30;;
7412;SDS011;3748;48.136;11.538;2022-12-22T09:53:10;2.00;;;1.10;;
7412;SDS011;3748;48.136;11.538;2022-12-22T09:55:47;4.03;;;1.47;;
7412;SDS011;3748;48.136;11.538;2022-12-22T09:58:18;2.40;;;1.10;;
7412;SDS011;3748;48.136;11.538;2022-12-22T10:00:49;4.23;;;1.30;;
7412;SDS011;3748;48.136;11.538;2022-12-22T10:03:24;3.47;;;1.17;;
7412;SDS011;3748;48.136;11.538;2022-12-22T10:06:01;1.40;;;0.90;;
7412;SDS011;3748;48.136;11.538;2022-12-22T10:08:35;1.43;;;1.10;;
7412;SDS011;3748;48.136;11.538;2022-12-22T10:11:06;3.00;;;1.23;;
7412;SDS011;3748;48.136;11.538;2022-12-22T10:13:38;1.30;;;1.10;;
7412;SDS011;3748;48.136;11.538;2022-12-22T10:16:14;1.87;;;1.40;;
7412;SDS011;3748;48.136;11.538;2022-12-22T10:18:53;2.00;;;1.20;;
7412;SDS011;3748;48.136;11.538;2022-12-22T10:21:21;7.97;;;1.30;;
7412;SDS011;3748;48.136;11.538;2022-12-22T10:23:48;7.37;;;1.30;;
7412;SDS011;3748;48.136;11.538;2022-12-22T10:26:17;1.40;;;1.10;;
7412;SDS011;3748;48.136;11.538;2022-12-22T10:28:48;2.27;;;1.20;;
7412;SDS011;3748;48.136;11.538;2022-12-22T10:31:17;21.80;;;1.83;;
7412;SDS011;3748;48.136;11.538;2022-12-22T10:33:47;2.40;;;1.40;;
7412;SDS011;3748;48.136;11.538;2022-12-22T10:36:17;2.40;;;1.43;;
7412;SDS011;3748;48.136;11.538;2022-12-22T10:38:57;5.33;;;1.10;;
7412;SDS011;3748;48.136;11.538;2022-12-22T10:41:28;1.87;;;1.30;;
7412;SDS011;3748;48.136;11.538;2022-12-22T10:43:58;3.20;;;1.30;;
7412;SDS011;3748;48.136;11.538;2022-12-22T10:46:31;2.37;;;1.70;;
7412;SDS011;3748;48.136;11.538;2022-12-22T10:49:08;1.40;;;1.20;;
7412;SDS011;3748;48.136;11.538;2022-12-22T10:51:39;5.70;;;1.47;;
7412;SDS011;3748;48.136;11.538;2022-12-22T10:54:07;3.53;;;1.47;;
7412;SDS011;3748;48.136;11.538;2022-12-22T10:56:35;1.83;;;1.17;;
7412;SDS011;3748;48.136;11.538;2022-12-22T10:59:11;4.27;;;1.33;;
7412;SDS011;3748;48.136;11.538;2022-12-22T11:01:43;6.63;;;1.47;;
7412;SDS011;3748;48.136;11.538;2022-12-22T11:04:14;1.30;;;1.00;;
7412;SDS011;3748;48.136;11.538;2022-12-22T11:06:43;2.57;;;1.40;;
7412;SDS011;3748;48.136;11.538;2022-12-22T11:09:10;3.87;;;1.50;;
7412;SDS011;3748;48.136;11.538;2022-12-22T11:11:40;14.43;;;2.13;;
7412;SDS011;3748;48.136;11.538;2022-12-22T11:14:13;4.60;;;1.50;;
7412;SDS011;3748;48.136;11.538;2022-12-22T11:16:49;2.60;;;1.40;;
7412;SDS011;3748;48.136;11.538;2022-12-22T11:19:29;3.80;;;1.40;;
7412;SDS011;3748;48.136;11.538;2022-12-22T11:22:06;4.47;;;1.50;;
7412;SDS011;3748;48.136;11.538;2022-12-22T11:24:44;3.00;;;1.47;;
7412;SDS011;3748;48.136;11.538;2022-12-22T11:27:24;4.30;;;2.27;;
7412;SDS011;3748;48.136;11.538;2022-12-22T11:29:59;3.70;;;1.63;;
7412;SDS011;3748;48.136;11.538;2022-12-22T11:32:34;1.60;;;1.37;;
7412;SDS011;3748;48.136;11.538;2022-12-22T11:35:15;3.30;;;1.10;;
7412;SDS011;3748;48.136;11.538;2022-12-22T11:37:48;4.30;;;1.50;;
7412;SDS011;3748;48.136;11.538;2022-12-22T11:40:20;4.13;;;1.80;;
7412;SDS011;3748;48.136;11.538;2022-12-22T11:43:01;5.57;;;1.83;;
7412;SDS011;3748;48.136;11.538;2022-12-22T11:45:46;4.17;;;1.60;;
7412;SDS011;3748;48.136;11.538;2022-12-22T11:48:24;1.13;;;1.03;;
7412;SDS011;3748;48.136;11.538;2022-12-22T11:51:12;2.70;;;1.60;;
7412;SDS011;3748;48.136;11.538;2022-12-22T11:53:52;2.53;;;1.40;;
7412;SDS011;3748;48.136;11.538;2022-12-22T11:56:39;3.03;;;1.60;;
7412;SDS011;3748;48.136;11.538;2022-12-22T11:59:18;4.60;;;1.70;;
7412;SDS011;3748;48.136;11.538;2022-12-22T12:02:03;9.93;;;1.90;;
7412;SDS011;3748;48.136;11.538;2022-12-22T12:04:57;5.33;;;1.73;;
7412;SDS011;3748;48.136;11.538;2022-12-22T12:07:45;5.00;;;1.50;;
7412;SDS011;3748;48.136;11.538;2022-12-22T12:10:16;9.13;;;1.80;;
7412;SDS011;3748;48.136;11.538;2022-12-22T12:12:50;7.23;;;1.87;;
7412;SDS011;3748;48.136;11.538;2022-12-22T12:15:27;3.40;;;1.50;;
7412;SDS011;3748;48.136;11.538;2022-12-22T12:21:09;2.20;;;1.80;;
7412;SDS011;3748;48.136;11.538;2022-12-22T12:23:50;4.70;;;1.70;;
7412;SDS011;3748;48.136;11.538;2022-12-22T12:26:30;8.33;;;2.37;;
7412;SDS011;3748;48.136;11.538;2022-12-22T12:29:05;4.90;;;2.10;;
7412;SDS011;3748;48.136;11.538;2022-12-22T12:31:42;7.13;;;1.73;;
7412;SDS011;3748;48.136;11.538;2022-12-22T12:34:14;4.97;;;1.97;;
7412;SDS011;3748;48.136;11.538;2022-12-22T12:36:44;8.20;;;1.83;;
7412;SDS011;3748;48.136;11.538;2022-12-22T12:39:17;2.53;;;1.60;;
7412;SDS011;3748;48.136;11.538;2022-12-22T12:41:52;3.97;;;1.90;;
7412;SDS011;3748;48.136;11.538;2022-12-22T12:44:25;3.23;;;1.53;;
7412;SDS011;3748;48.136;11.538;2022-12-22T12:47:02;4.13;;;1.60;;
7412;SDS011;3748;48.136;11.538;2022-12-22T12:55:30;4.30;;;1.43;;
7412;SDS011;3748;48.136;11.538;2022-12-22T12:57:58;6.07;;;1.63;;
7412;SDS011;3748;48.136;11.538;2022-12-22T13:00:40;2.23;;;1.83;;
7412;SDS011;3748;48.136;11.538;2022-12-22T13:06:04;4.33;;;2.07;;
7412;SDS011;3748;48.136;11.538;2022-12-22T13:08:34;8.20;;;2.20;;
7412;SDS011;3748;48.136;11.538;2022-12-22T13:11:41;3.97;;;2.30;;
7412;SDS011;3748;48.136;11.538;2022-12-22T13:14:07;4.80;;;1.50;;
7412;SDS011;3748;48.136;11.538;2022-12-22T13:16:35;2.37;;;1.30;;
7412;SDS011;3748;48.136;11.538;2022-12-22T13:19:09;3.90;;;1.23;;
7412;SDS011;3748;48.136;11.538;2022-12-22T13:21:45;2.53;;;1.70;;
7412;SDS011;3748;48.136;11.538;2022-12-22T13:24:14;3.53;;;1.60;;
7412;SDS011;3748;48.136;11.538;2022-12-22T13:26:46;3.87;;;1.90;;
7412;SDS011;3748;48.136;11.538;2022-12-22T13:29:16;6.23;;;1.80;;
7412;SDS011;3748;48.136;11.538;2022-12-22T13:31:49;3.20;;;1.30;;
7412;SDS011;3748;48.136;11.538;2022-12-22T13:34:29;3.73;;;1.73;;
7412;SDS011;3748;48.136;11.538;2022-12-22T13:37:03;5.47;;;2.43;;
7412;SDS011;3748;48.136;11.538;2022-12-22T13:39:38;4.40;;;1.90;;
7412;SDS011;3748;48.136;11.538;2022-12-22T13:42:05;3.13;;;2.10;;
7412;SDS011;3748;48.136;11.538;2022-12-22T13:44:34;4.40;;;2.13;;
7412;SDS011;3748;48.136;11.538;2022-12-22T13:47:01;3.13;;;1.50;;
7412;SDS011;3748;48.136;11.538;2022-12-22T13:49:30;6.77;;;1.83;;
7412;SDS011;3748;48.136;11.538;2022-12-22T13:52:00;5.83;;;2.07;;
7412;SDS011;3748;48.136;11.538;2022-12-22T13:54:28;6.50;;;1.90;;
7412;SDS011;3748;48.136;11.538;2022-12-22T13:56:59;5.13;;;1.70;;
7412;SDS011;3748;48.136;11.538;2022-12-22T13:59:28;4.90;;;1.60;;
7412;SDS011;3748;48.136;11.538;2022-12-22T14:01:58;2.73;;;1.60;;
7412;SDS011;3748;48.136;11.538;2022-12-22T14:04:26;8.83;;;2.70;;
7412;SDS011;3748;48.136;11.538;2022-12-22T14:06:55;8.50;;;3.00;;
7412;SDS011;3748;48.136;11.538;2022-12-22T14:09:22;11.27;;;3.60;;
7412;SDS011;3748;48.136;11.538;2022-12-22T14:11:51;5.63;;;2.80;;
7412;SDS011;3748;48.136;11.538;2022-12-22T14:14:23;7.93;;;2.57;;
7412;SDS011;3748;48.136;11.538;2022-12-22T14:16:52;6.23;;;2.63;;
7412;SDS011;3748;48.136;11.538;2022-12-22T14:19:21;4.20;;;2.40;;
7412;SDS011;3748;48.136;11.538;2022-12-22T14:21:59;4.40;;;1.63;;
7412;SDS011;3748;48.136;11.538;2022-12-22T14:24:33;3.27;;;2.40;;
7412;SDS011;3748;48.136;11.538;2022-12-22T14:27:02;4.27;;;3.00;;
7412;SDS011;3748;48.136;11.538;2022-12-22T14:29:29;7.80;;;2.50;;
7412;SDS011;3748;48.136;11.538;2022-12-22T14:31:57;5.63;;;2.80;;
7412;SDS011;3748;48.136;11.538;2022-12-22T14:34:26;10.53;;;3.67;;
7412;SDS011;3748;48.136;11.538;2022-12-22T14:36:54;8.97;;;2.70;;
7412;SDS011;3748;48.136;11.538;2022-12-22T14:39:23;4.83;;;2.27;;
7412;SDS011;3748;48.136;11.538;2022-12-22T14:41:52;10.10;;;4.60;;
7412;SDS011;3748;48.136;11.538;2022-12-22T14:44:21;6.23;;;2.00;;
7412;SDS011;3748;48.136;11.538;2022-12-22T14:49:43;7.60;;;2.23;;
7412;SDS011;3748;48.136;11.538;2022-12-22T14:52:17;5.50;;;2.47;;
7412;SDS011;3748;48.136;11.538;2022-12-22T14:54:52;5.90;;;4.03;;
7412;SDS011;3748;48.136;11.538;2022-12-22T14:57:24;11.43;;;3.70;;
7412;SDS011;3748;48.136;11.538;2022-12-22T14:59:56;5.93;;;2.07;;
7412;SDS011;3748;48.136;11.538;2022-12-22T15:02:26;11.30;;;3.17;;
7412;SDS011;3748;48.136;11.538;2022-12-22T15:05:05;3.10;;;2.20;;
7412;SDS011;3748;48.136;11.538;2022-12-22T15:07:41;6.47;;;2.77;;
7412;SDS011;3748;48.136;11.538;2022-12-22T15:10:11;6.40;;;2.53;;
7412;SDS011;3748;48.136;11.538;2022-12-22T15:12:38;5.77;;;3.23;;
7412;SDS011;3748;48.136;11.538;2022-12-22T15:15:10;7.10;;;2.27;;
7412;SDS011;3748;48.136;11.538;2022-12-22T15:17:42;3.90;;;2.53;;
7412;SDS011;3748;48.136;11.538;2022-12-22T15:20:12;7.27;;;3.27;;
7412;SDS011;3748;48.136;11.538;2022-12-22T15:22:42;4.90;;;2.30;;
7412;SDS011;3748;48.136;11.538;2022-12-22T15:25:12;2.90;;;1.93;;
7412;SDS011;3748;48.136;11.538;2022-12-22T15:27:41;4.33;;;2.53;;
7412;SDS011;3748;48.136;11.538;2022-12-22T15:30:09;5.57;;;2.23;;
7412;SDS011;3748;48.136;11.538;2022-12-22T15:32:38;10.37;;;3.40;;
7412;SDS011;3748;48.136;11.538;2022-12-22T15:35:19;7.07;;;2.63;;
7412;SDS011;3748;48.136;11.538;2022-12-22T15:37:50;6.03;;;2.07;;
7412;SDS011;3748;48.136;11.538;2022-12-22T15:40:19;7.57;;;2.20;;
7412;SDS011;3748;48.136;11.538;2022-12-22T15:42:48;6.53;;;2.73;;
7412;SDS011;3748;48.136;11.538;2022-12-22T15:45:15;3.40;;;2.27;;
7412;SDS011;3748;48.136;11.538;2022-12-22T15:47:43;5.43;;;2.30;;
7412;SDS011;3748;48.136;11.538;2022-12-22T15:50:15;10.87;;;2.47;;
7412;SDS011;3748;48.136;11.538;2022-12-22T15:52:46;9.30;;;2.70;;
7412;SDS011;3748;48.136;11.538;2022-12-22T15:55:15;6.83;;;2.37;;